Time;durP1;ratioP1;P1;durP2;ratioP2;P2;SDS_P1;SDS_P2;PMS_P1;PMS_P2;Temp;Humidity;BMP_temperature;BMP_pressure;BME280_temperature;BME280_humidity;BME280_pressure;Samples;Min_cycle;Max_cycle;Signal;HPM_P1;HPM_P2
2024/03/20 00:02:05;;;;;;;2.30;1.35;;;;;;;12.11;59.82;99071.16;4946994;29;20043;-95
2024/03/20 00:04:32;;;;;;;1.92;1.67;;;;;;;12.16;59.86;99062.16;4946476;29;20074;-95
2024/03/20 00:07:06;;;;;;;2.45;1.67;;;;;;;11.23;59.86;98912.88;4951064;29;20042;-96
2024/03/20 00:09:36;;;;;;;3.33;2.05;;;;;;;11.57;59.92;98993.63;4968178;29;20039;-95
2024/03/20 00:12:03;;;;;;;2.03;1.67;;;;;;;11.14;60.15;98913.09;4943734;29;20079;-95
2024/03/20 00:14:29;;;;;;;1.85;1.45;;;;;;;11.16;59.88;98916.59;4946563;29;20062;-94
2024/03/20 00:17:01;;;;;;;1.67;1.38;;;;;;;11.25;60.01;98916.34;4952654;29;20059;-96
2024/03/20 00:19:31;;;;;;;2.30;2.10;;;;;;;11.53;60.19;98979.50;4950207;29;20145;-95
2024/03/20 00:21:57;;;;;;;3.45;1.70;;;;;;;11.02;60.18;98902.81;4944793;29;20048;-96
2024/03/20 00:24:23;;;;;;;1.60;1.20;;;;;;;11.03;60.08;98901.88;4947076;29;20102;-96
2024/03/20 00:26:50;;;;;;;1.90;1.00;;;;;;;12.02;60.07;99055.44;4946796;29;20046;-95
2024/03/20 00:29:16;;;;;;;2.17;1.77;;;;;;;11.55;60.42;98984.78;4945876;29;20039;-95
2024/03/20 00:31:45;;;;;;;2.28;1.65;;;;;;;11.69;60.14;99011.94;4942111;29;20150;-95
2024/03/20 00:34:17;;;;;;;3.47;1.27;;;;;;;11.08;59.93;98898.19;4941879;29;20071;-96
2024/03/20 00:37:06;;;;;;;1.65;1.17;;;;;;;12.02;59.76;99050.09;4945419;29;20047;-96
2024/03/20 00:39:35;;;;;;;3.03;1.58;;;;;;;11.01;60.28;98893.94;4941441;29;20135;-96
2024/03/20 00:42:04;;;;;;;2.08;1.40;;;;;;;11.03;60.92;98920.50;4941050;29;20051;-95
2024/03/20 00:44:30;;;;;;;1.83;1.30;;;;;;;11.77;60.61;99049.88;4941587;29;20447;-96
2024/03/20 00:46:56;;;;;;;2.25;1.77;;;;;;;11.78;60.67;99053.44;4939088;29;20051;-95
2024/03/20 00:49:22;;;;;;;1.75;1.40;;;;;;;10.83;61.33;98903.28;4940077;29;20050;-94
2024/03/20 00:51:48;;;;;;;2.75;1.80;;;;;;;10.88;61.63;98930.63;4931095;29;20127;-96
2024/03/20 00:54:16;;;;;;;1.50;1.40;;;;;;;11.58;61.90;99054.84;4943277;29;20040;-95
2024/03/20 00:56:42;;;;;;;2.13;1.73;;;;;;;11.48;62.17;99058.66;4942625;29;20102;-95
2024/03/20 00:59:09;;;;;;;3.88;1.50;;;;;;;11.49;62.36;99050.63;4943839;29;20499;-94
2024/03/20 01:01:36;;;;;;;1.55;1.45;;;;;;;10.60;62.59;98900.34;4932022;29;20131;-95
2024/03/20 01:04:05;;;;;;;1.90;1.42;;;;;;;11.59;62.09;99045.91;4943740;29;20046;-96
2024/03/20 01:06:31;;;;;;;1.67;1.38;;;;;;;11.59;61.81;99051.25;4943610;29;20074;-95
2024/03/20 01:08:58;;;;;;;2.08;1.90;;;;;;;11.58;61.89;99048.63;4943488;29;20075;-95
2024/03/20 01:11:27;;;;;;;2.45;1.75;;;;;;;10.62;61.58;98887.88;4942481;29;20044;-94
2024/03/20 01:13:53;;;;;;;2.80;1.55;;;;;;;11.51;62.01;99037.25;4943574;29;20146;-96
2024/03/20 01:16:21;;;;;;;2.90;2.15;;;;;;;11.52;61.95;99049.66;4940754;29;20076;-94
2024/03/20 01:18:47;;;;;;;2.60;1.75;;;;;;;10.69;61.08;98871.72;4939751;29;20035;-96
2024/03/20 01:21:13;;;;;;;2.42;1.92;;;;;;;11.37;61.40;98988.84;4941834;29;20072;-95
2024/03/20 01:23:40;;;;;;;2.00;1.63;;;;;;;10.75;61.11;98888.44;4942058;29;20147;-94
2024/03/20 01:26:08;;;;;;;2.72;2.17;;;;;;;10.72;61.74;98892.06;4942814;29;20032;-94
2024/03/20 01:28:34;;;;;;;1.73;1.38;;;;;;;10.61;61.93;98867.53;4944661;29;20103;-96
2024/03/20 01:31:00;;;;;;;2.67;1.73;;;;;;;10.99;61.39;98929.47;4942752;29;20047;-95
2024/03/20 01:33:27;;;;;;;2.00;1.52;;;;;;;11.59;61.45;99032.59;4941825;29;20796;-95
2024/03/20 01:35:53;;;;;;;2.17;1.77;;;;;;;11.63;61.79;99020.94;4950109;29;20039;-95
2024/03/20 01:38:19;;;;;;;2.60;2.08;;;;;;;10.88;60.90;98897.84;4946499;29;20107;-95
2024/03/20 01:40:45;;;;;;;1.40;1.30;;;;;;;10.66;61.55;98860.28;4945547;29;20499;-96
2024/03/20 01:43:20;;;;;;;3.33;1.95;;;;;;;10.78;61.36;98883.91;4943029;29;20040;-95
2024/03/20 01:45:50;;;;;;;2.10;1.65;;;;;;;11.54;61.66;99007.00;4960191;29;20046;-96
2024/03/20 01:48:22;;;;;;;4.03;1.75;;;;;;;11.56;61.69;99008.72;4946414;29;20141;-96
2024/03/20 01:50:50;;;;;;;2.53;2.00;;;;;;;10.57;61.89;98857.88;4945721;29;20514;-95
2024/03/20 01:53:18;;;;;;;1.73;1.40;;;;;;;10.68;61.03;98846.03;4947938;29;20058;-96
2024/03/20 01:55:44;;;;;;;1.75;1.55;;;;;;;11.09;60.90;98920.34;4955972;29;20047;-96
2024/03/20 01:58:16;;;;;;;1.90;1.00;;;;;;;10.98;60.59;98882.53;4978671;28;20148;-96
2024/03/20 02:00:51;;;;;;;1.92;1.25;;;;;;;11.62;61.04;98997.00;4957170;29;20043;-96
2024/03/20 02:03:27;;;;;;;2.75;1.85;;;;;;;11.57;61.35;98993.63;4957391;29;20047;-96
2024/03/20 02:06:18;;;;;;;2.05;1.65;;;;;;;10.58;61.50;98864.94;4957730;29;20039;-96
2024/03/20 02:08:45;;;;;;;2.28;1.80;;;;;;;10.93;61.26;98932.31;4965176;29;20043;-96
2024/03/20 02:11:11;;;;;;;2.42;1.83;;;;;;;11.15;61.39;98973.44;4957173;29;20070;-96
2024/03/20 02:13:44;;;;;;;2.28;1.80;;;;;;;10.46;61.50;98853.69;4940244;29;20047;-96
2024/03/20 02:16:10;;;;;;;3.10;1.10;;;;;;;11.12;60.84;98954.00;4950579;29;20039;-95
2024/03/20 02:18:37;;;;;;;1.67;1.50;;;;;;;10.84;61.09;98896.16;4950134;29;20035;-96
2024/03/20 02:21:06;;;;;;;2.58;1.77;;;;;;;10.33;61.10;98823.03;4953922;29;20505;-95
2024/03/20 02:23:36;;;;;;;2.08;1.88;;;;;;;10.36;61.10;98828.25;4952008;29;20055;-96
2024/03/20 02:26:05;;;;;;;2.08;1.83;;;;;;;10.50;61.70;98872.25;4949779;29;20051;-96
2024/03/20 02:28:38;;;;;;;2.67;1.48;;;;;;;10.71;61.26;98905.38;4939632;29;20059;-95
2024/03/20 02:31:04;;;;;;;1.83;1.10;;;;;;;10.80;60.97;98910.47;4954052;29;20490;-96
2024/03/20 02:33:31;;;;;;;2.13;1.15;;;;;;;11.30;61.28;98999.63;4946410;29;20059;-96
2024/03/20 02:35:57;;;;;;;1.80;0.95;;;;;;;11.23;62.08;99005.16;4948463;29;20054;-96
2024/03/20 02:38:32;;;;;;;1.98;1.27;;;;;;;10.36;62.07;98873.44;4946189;29;20084;-96
2024/03/20 02:40:58;;;;;;;1.83;1.15;;;;;;;11.15;61.99;98993.84;4942788;29;20047;-96
2024/03/20 02:43:24;;;;;;;6.38;1.90;;;;;;;10.60;61.95;98908.31;4943982;29;20043;-95
2024/03/20 02:45:51;;;;;;;2.33;2.13;;;;;;;11.17;61.77;99005.31;4944970;29;20043;-95
2024/03/20 02:48:20;;;;;;;1.90;1.38;;;;;;;11.24;61.43;98990.94;4949964;29;20047;-96
2024/03/20 02:50:46;;;;;;;1.80;1.70;;;;;;;11.26;61.20;99010.41;4956329;29;20043;-95
2024/03/20 02:53:13;;;;;;;1.58;1.02;;;;;;;10.73;61.66;98909.75;4974016;28;20071;-95
2024/03/20 02:55:42;;;;;;;1.58;1.48;;;;;;;11.14;64.31;99008.94;4979904;28;20039;-96
2024/03/20 02:58:09;;;;;;;6.25;2.20;;;;;;;9.99;68.61;98890.22;4963907;28;20058;-95
2024/03/20 03:00:35;;;;;;;2.80;1.75;;;;;;;9.88;70.41;98902.88;4962757;28;20031;-95
2024/03/20 03:03:02;;;;;;;3.08;2.08;;;;;;;9.47;72.03;98886.03;4963139;28;20050;-94
2024/03/20 03:05:29;;;;;;;4.47;2.80;;;;;;;9.91;72.41;98986.94;4963741;28;20031;-95
2024/03/20 03:07:55;;;;;;;4.15;3.03;;;;;;;9.17;73.69;98909.66;4964321;28;20023;-96
2024/03/20 03:10:22;;;;;;;3.05;2.35;;;;;;;8.76;76.94;98913.03;4964127;28;20058;-96
2024/03/20 03:12:51;;;;;;;3.45;2.35;;;;;;;8.01;80.06;98892.13;4964083;28;20099;-96
2024/03/20 03:15:18;;;;;;;5.68;2.58;;;;;;;8.17;81.15;98910.44;4963261;28;20028;-96
2024/03/20 03:17:45;;;;;;;3.33;2.70;;;;;;;7.79;84.40;98909.22;4964145;28;20039;-96
2024/03/20 03:20:14;;;;;;;3.53;2.78;;;;;;;8.54;87.36;99061.84;4948200;28;20062;-96
2024/03/20 03:22:43;;;;;;;4.72;3.08;;;;;;;8.19;90.19;99072.88;4956583;29;20055;-96
2024/03/20 03:25:11;;;;;;;3.90;2.13;;;;;;;8.39;88.23;99068.22;4946940;29;20047;-96
2024/03/20 03:27:40;;;;;;;4.22;2.10;;;;;;;7.73;89.36;98976.34;4945200;29;20055;-96
2024/03/20 03:30:09;;;;;;;2.88;2.22;;;;;;;8.30;89.36;99078.03;4947051;29;20112;-96
2024/03/20 03:32:35;;;;;;;4.25;1.55;;;;;;;7.45;91.56;98969.63;4943800;29;20134;-95
2024/03/20 03:35:01;;;;;;;3.08;2.25;;;;;;;7.12;96.18;98930.31;4944614;29;20040;-96
2024/03/20 03:37:28;;;;;;;3.45;1.90;;;;;;;7.29;97.01;98956.59;4943449;29;20130;-96
2024/03/20 03:39:54;;;;;;;2.72;1.98;;;;;;;7.26;95.25;98938.09;4944397;29;20080;-96
2024/03/20 03:42:20;;;;;;;2.22;2.00;;;;;;;7.10;93.48;98910.94;4948834;29;20051;-96
2024/03/20 03:44:49;;;;;;;3.03;1.75;;;;;;;7.49;96.46;99040.16;4951181;29;20043;-96
2024/03/20 03:47:17;;;;;;;4.97;2.17;;;;;;;6.90;95.72;98920.84;4973772;28;20035;-95
2024/03/20 03:49:44;;;;;;;1.92;1.40;;;;;;;6.99;96.76;98915.47;4962202;28;20035;-96
2024/03/20 03:52:13;;;;;;;2.38;1.30;;;;;;;6.97;95.31;98927.81;4973940;28;20100;-95
2024/03/20 03:54:40;;;;;;;;;;;;;;;7.88;96.59;99081.19;4963925;28;20091;-96
2024/03/20 03:57:06;;;;;;;3.33;1.65;;;;;;;6.96;95.25;98934.88;4976506;28;19977;-96
2024/03/20 03:59:32;;;;;;;2.75;1.88;;;;;;;7.20;95.31;98970.78;4979672;28;20051;-96
2024/03/20 04:01:58;;;;;;;1.60;1.35;;;;;;;7.54;94.49;99027.75;4979152;28;20051;-96
2024/03/20 04:04:26;;;;;;;2.28;1.90;;;;;;;7.86;98.16;99085.63;4960417;28;20083;-95
2024/03/20 04:06:52;;;;;;;2.92;2.08;;;;;;;7.92;97.49;99090.00;4943218;29;20074;-96
2024/03/20 04:09:20;;;;;;;2.67;1.98;;;;;;;7.92;98.66;99082.06;4942700;29;20656;-95
2024/03/20 04:11:46;;;;;;;2.75;2.13;;;;;;;7.37;100.00;98993.53;4946054;29;20513;-96
2024/03/20 04:14:14;;;;;;;2.80;1.50;;;;;;;7.42;100.00;99028.75;4940459;29;20039;-95
2024/03/20 04:16:41;;;;;;;5.35;1.85;;;;;;;6.90;100.00;98948.16;4940871;29;20566;-96
2024/03/20 04:19:07;;;;;;;3.92;2.28;;;;;;;6.87;100.00;98952.59;4945945;29;20043;-96
2024/03/20 04:21:34;;;;;;;3.47;1.95;;;;;;;7.52;100.00;99109.78;4951885;29;20063;-96
2024/03/20 04:24:00;;;;;;;3.63;2.03;;;;;;;7.72;100.00;99106.06;4942146;29;20043;-96
2024/03/20 04:26:26;;;;;;;2.95;1.80;;;;;;;7.07;100.00;99014.13;4943409;29;20043;-96
2024/03/20 04:28:52;;;;;;;3.30;1.60;;;;;;;7.31;100.00;99050.03;4944723;29;20040;-96
2024/03/20 04:31:18;;;;;;;2.47;1.52;;;;;;;6.91;100.00;98967.53;4944234;29;20052;-96
2024/03/20 04:33:44;;;;;;;3.72;1.45;;;;;;;7.05;98.08;98970.94;4947678;29;20101;-96
2024/03/20 04:36:10;;;;;;;2.58;1.73;;;;;;;7.02;96.20;98951.56;4947371;29;20040;-96
2024/03/20 04:38:39;;;;;;;2.38;1.75;;;;;;;7.24;97.73;98976.03;4945628;29;20074;-95
2024/03/20 04:41:05;;;;;;;2.30;1.50;;;;;;;7.11;97.48;98957.66;4945657;29;20047;-96
2024/03/20 04:43:31;;;;;;;2.33;1.92;;;;;;;7.01;100.00;98955.13;4944820;29;20133;-96
2024/03/20 04:45:58;;;;;;;4.53;1.73;;;;;;;6.73;100.00;98935.09;4944303;29;20043;-95
2024/03/20 04:48:24;;;;;;;2.95;1.60;;;;;;;7.67;98.52;99110.53;4946945;29;20039;-96
2024/03/20 04:50:59;;;;;;;3.15;1.58;;;;;;;6.66;100.00;98946.63;4947751;29;20047;-96
2024/03/20 04:53:26;;;;;;;2.22;1.60;;;;;;;7.72;99.13;99106.97;4945715;29;20071;-96
2024/03/20 04:56:01;;;;;;;2.03;1.60;;;;;;;7.77;98.10;99117.50;4949619;29;20123;-96
2024/03/20 04:58:27;;;;;;;3.42;2.05;;;;;;;6.89;97.83;98956.09;4953598;29;20075;-96
2024/03/20 05:00:57;;;;;;;3.65;1.25;;;;;;;7.05;94.16;98947.16;4950332;29;20047;-95
2024/03/20 05:03:23;;;;;;;2.55;1.67;;;;;;;7.06;94.55;98962.09;4951366;29;20047;-95
2024/03/20 05:05:53;;;;;;;3.47;1.90;;;;;;;7.10;97.82;98978.81;4946176;29;20071;-95
2024/03/20 05:08:19;;;;;;;3.90;2.70;;;;;;;7.98;99.25;99117.28;4946068;29;20051;-96
2024/03/20 05:10:45;;;;;;;3.92;2.30;;;;;;;7.19;99.50;98990.16;4947050;29;20514;-95
2024/03/20 05:13:12;;;;;;;5.00;2.00;;;;;;;7.28;100.00;99022.72;4957795;29;20051;-95
2024/03/20 05:15:40;;;;;;;17.52;8.00;;;;;;;6.92;100.00;98990.47;4949492;29;20065;-96
2024/03/20 05:18:06;;;;;;;10.27;7.05;;;;;;;7.64;100.00;99127.34;4952068;29;20047;-96
2024/03/20 05:20:32;;;;;;;8.77;4.90;;;;;;;6.66;100.00;98974.78;4949409;29;20056;-96
2024/03/20 05:22:58;;;;;;;6.75;4.10;;;;;;;6.68;100.00;98965.97;4939825;29;20042;-96
2024/03/20 05:25:25;;;;;;;6.55;3.00;;;;;;;7.48;100.00;99131.91;4952943;29;20074;-96
2024/03/20 05:27:51;;;;;;;5.50;3.50;;;;;;;7.08;100.00;99078.44;4954889;29;20211;-96
2024/03/20 05:30:19;;;;;;;6.38;3.75;;;;;;;6.98;100.00;99072.34;4955157;29;20077;-96
2024/03/20 05:32:45;;;;;;;6.05;2.90;;;;;;;6.21;100.00;98959.28;4963431;29;20059;-95
2024/03/20 05:35:11;;;;;;;8.23;3.78;;;;;;;6.67;100.00;99032.06;4960319;28;20047;-95
2024/03/20 05:37:37;;;;;;;5.30;3.10;;;;;;;7.36;100.00;99153.16;4967248;28;20031;-93
2024/03/20 05:40:05;;;;;;;4.53;2.53;;;;;;;7.33;100.00;99167.31;4981018;28;20108;-94
2024/03/20 05:42:31;;;;;;;3.17;2.03;;;;;;;6.74;100.00;99069.00;4963581;28;20032;-95
2024/03/20 05:44:57;;;;;;;5.47;2.75;;;;;;;6.48;100.00;99015.44;4975446;28;20026;-95
2024/03/20 05:47:27;;;;;;;8.63;3.35;;;;;;;7.30;100.00;99167.31;4965294;28;20094;-95
2024/03/20 05:49:53;;;;;;;8.00;4.38;;;;;;;6.30;100.00;98984.75;4964801;28;20035;-95
2024/03/20 05:52:19;;;;;;;6.72;4.25;;;;;;;6.92;100.00;99091.78;4960875;28;20050;-96
2024/03/20 05:54:46;;;;;;;9.52;4.70;;;;;;;6.37;100.00;99013.75;4945826;29;20047;-96
2024/03/20 05:57:12;;;;;;;6.53;3.55;;;;;;;6.99;100.00;99125.22;4959441;29;20044;-93
2024/03/20 05:59:38;;;;;;;8.70;4.63;;;;;;;7.04;100.00;99127.81;4944001;29;20062;-95
2024/03/20 06:02:04;;;;;;;5.97;3.88;;;;;;;6.87;100.00;99082.13;4942431;29;20130;-95
2024/03/20 06:04:33;;;;;;;6.45;3.65;;;;;;;6.38;100.00;98999.66;4945722;29;20046;-95
2024/03/20 06:07:00;;;;;;;6.88;4.10;;;;;;;7.42;100.00;99179.56;4946793;29;20063;-96
2024/03/20 06:09:26;;;;;;;6.53;3.92;;;;;;;6.41;100.00;99003.16;4944620;29;20407;-96
2024/03/20 06:11:52;;;;;;;7.13;3.60;;;;;;;6.92;100.00;99094.44;4944479;29;20074;-96
2024/03/20 06:14:18;;;;;;;5.63;2.80;;;;;;;7.04;100.00;99098.72;4942248;29;20138;-95
2024/03/20 06:16:44;;;;;;;4.35;2.78;;;;;;;7.02;100.00;99092.56;4937091;29;20131;-95
2024/03/20 06:19:10;;;;;;;5.50;3.17;;;;;;;7.72;100.00;99193.44;4940896;29;20501;-96
2024/03/20 06:21:58;;;;;;;5.57;3.38;;;;;;;7.77;100.00;99181.91;4947617;29;20065;-93
2024/03/20 06:24:24;;;;;;;4.38;3.03;;;;;;;7.81;100.00;99172.19;5212023;23;20115;-94
2024/03/20 06:26:50;;;;;;;7.43;4.28;;;;;;;8.09;100.00;99190.44;4937713;29;20056;-96
2024/03/20 06:29:16;;;;;;;23.73;11.13;;;;;;;7.90;100.00;99140.31;4938829;29;20103;-94
2024/03/20 06:31:42;;;;;;;36.60;17.92;;;;;;;7.55;100.00;99040.97;4932906;29;20055;-94
2024/03/20 06:34:10;;;;;;;37.75;16.17;;;;;;;7.96;100.00;99102.31;5020354;23;20055;-93
2024/03/20 06:36:38;;;;;;;26.38;11.40;;;;;;;8.42;100.00;99174.19;4935091;29;20082;-94
2024/03/20 06:39:09;;;;;;;22.58;11.63;;;;;;;7.87;100.00;99063.56;4938813;29;20062;-95
2024/03/20 06:41:35;;;;;;;20.23;8.50;;;;;;;8.40;100.00;99119.44;4940825;29;20047;-94
2024/03/20 06:44:01;;;;;;;16.42;8.25;;;;;;;8.97;100.00;99208.88;4941883;29;20044;-95
2024/03/20 06:46:29;;;;;;;14.52;6.63;;;;;;;8.15;100.00;99053.50;4935178;29;20043;-95
2024/03/20 06:48:58;;;;;;;10.93;7.65;;;;;;;9.16;100.00;99197.09;4936907;29;20098;-95
2024/03/20 06:51:25;;;;;;;17.70;9.48;;;;;;;9.31;100.00;99211.06;4935836;29;20126;-95
2024/03/20 06:53:51;;;;;;;24.40;11.60;;;;;;;9.42;100.00;99214.41;4935986;29;20048;-95
2024/03/20 06:56:20;;;;;;;17.60;8.88;;;;;;;9.55;100.00;99217.75;4938722;29;20063;-94
2024/03/20 06:58:46;;;;;;;12.65;7.03;;;;;;;8.81;99.23;99076.47;4957927;28;20023;-94
2024/03/20 07:01:12;;;;;;;11.85;6.80;;;;;;;9.17;97.88;99105.09;4957170;28;20040;-91
2024/03/20 07:03:38;;;;;;;10.00;4.95;;;;;;;9.32;94.73;99118.13;4956652;28;20023;-93
2024/03/20 07:06:04;;;;;;;8.57;4.70;;;;;;;10.04;94.22;99228.44;4954488;28;20104;-93
2024/03/20 07:08:31;;;;;;;7.90;4.43;;;;;;;9.32;91.78;99085.41;4942445;29;20025;-95
2024/03/20 07:10:58;;;;;;;6.97;4.28;;;;;;;10.18;89.72;99228.19;4933368;29;20146;-94
2024/03/20 07:13:26;;;;;;;5.78;3.58;;;;;;;10.22;90.59;99213.94;4937550;29;20082;-94
2024/03/20 07:15:52;;;;;;;9.70;3.92;;;;;;;10.55;89.38;99239.94;4938430;29;20051;-95
2024/03/20 07:18:20;;;;;;;7.30;4.38;;;;;;;10.71;87.22;99244.03;4936215;29;20044;-96
2024/03/20 07:20:46;;;;;;;5.70;3.17;;;;;;;10.04;86.09;99094.69;4937158;29;20078;-96
2024/03/20 07:23:12;;;;;;;7.15;3.85;;;;;;;10.51;84.44;99156.69;4937208;29;20052;-96
2024/03/20 07:25:39;;;;;;;9.50;3.58;;;;;;;10.75;81.84;99200.53;4935875;29;20040;-95
2024/03/20 07:28:05;;;;;;;8.13;3.85;;;;;;;10.37;81.00;99117.09;4936528;29;20043;-93
2024/03/20 07:30:33;;;;;;;5.78;2.67;;;;;;;11.21;79.61;99258.09;4950070;29;20043;-94
2024/03/20 07:32:58;;;;;;;5.20;3.03;;;;;;;10.54;78.88;99110.53;4934758;29;20043;-94
2024/03/20 07:35:24;;;;;;;4.32;2.92;;;;;;;11.02;80.20;99206.19;4936654;29;20069;-93
2024/03/20 07:37:50;;;;;;;6.07;3.75;;;;;;;11.39;79.30;99248.81;4934132;29;20063;-94
2024/03/20 07:40:17;;;;;;;6.15;4.10;;;;;;;10.98;78.73;99159.25;4934014;29;20579;-93
2024/03/20 07:42:44;;;;;;;7.25;3.90;;;;;;;10.93;78.14;99129.19;4932411;29;20056;-94
2024/03/20 07:45:10;;;;;;;5.80;3.00;;;;;;;11.53;79.29;99192.56;4930942;29;20047;-93
2024/03/20 07:47:38;;;;;;;6.85;3.92;;;;;;;11.91;78.21;99225.44;4935674;29;20054;-93
2024/03/20 07:50:06;;;;;;;5.57;3.00;;;;;;;12.17;76.55;99261.22;4949571;29;20135;-92
2024/03/20 07:52:32;;;;;;;5.32;3.47;;;;;;;12.33;75.26;99251.88;4931841;29;20055;-93
2024/03/20 07:55:00;;;;;;;5.63;3.67;;;;;;;12.06;74.00;99189.50;4933128;29;20051;-92
2024/03/20 07:57:26;;;;;;;8.85;3.97;;;;;;;12.54;74.99;99255.78;4937521;29;20051;-94
2024/03/20 07:59:53;;;;;;;6.35;3.55;;;;;;;12.45;75.27;99202.69;4935038;29;20040;-94
2024/03/20 08:02:19;;;;;;;6.30;4.10;;;;;;;12.90;74.39;99247.63;4935664;29;20052;-92
2024/03/20 08:04:46;;;;;;;5.22;2.92;;;;;;;13.06;73.87;99248.09;4938165;29;20399;-94
2024/03/20 08:07:12;;;;;;;6.50;3.40;;;;;;;13.20;72.95;99251.19;4934734;29;20047;-93
2024/03/20 08:09:39;;;;;;;6.07;4.43;;;;;;;12.74;73.18;99247.22;4936025;29;20051;-94
2024/03/20 08:12:05;;;;;;;5.25;3.53;;;;;;;13.14;73.97;99265.63;4937853;29;20102;-94
2024/03/20 08:14:31;;;;;;;5.97;4.18;;;;;;;13.33;72.40;99257.06;4938900;29;20047;-93
2024/03/20 08:16:57;;;;;;;6.10;3.38;;;;;;;13.08;71.27;99196.38;4941079;29;20044;-94
2024/03/20 08:19:23;;;;;;;5.25;3.00;;;;;;;13.58;71.03;99262.56;4937278;29;20693;-94
2024/03/20 08:21:50;;;;;;;5.95;3.10;;;;;;;13.73;70.20;99259.38;4938605;29;20054;-93
2024/03/20 08:24:16;;;;;;;4.72;3.63;;;;;;;13.78;70.27;99264.59;4932929;29;20209;-95
2024/03/20 08:26:42;;;;;;;5.57;3.28;;;;;;;13.56;69.42;99200.25;4937673;29;20142;-93
2024/03/20 08:29:08;;;;;;;4.50;2.38;;;;;;;13.60;68.88;99191.22;4937664;29;20482;-93
2024/03/20 08:31:34;;;;;;;6.28;3.42;;;;;;;14.22;69.49;99258.69;4936806;29;20048;-94
2024/03/20 08:34:00;;;;;;;3.03;2.65;;;;;;;13.94;68.62;99188.31;4938694;29;20079;-94
2024/03/20 08:36:28;;;;;;;6.07;3.25;;;;;;;13.94;66.98;99174.03;4940843;29;20086;-93
2024/03/20 08:38:56;;;;;;;5.07;3.00;;;;;;;13.96;68.56;99255.94;4940383;29;20047;-93
2024/03/20 08:41:22;;;;;;;4.30;2.95;;;;;;;14.37;68.11;99255.47;4941828;28;20050;-93
2024/03/20 08:43:48;;;;;;;5.50;3.70;;;;;;;13.87;67.72;99169.84;4940749;29;20543;-93
2024/03/20 08:46:14;;;;;;;5.78;3.08;;;;;;;14.05;66.77;99161.19;4939106;29;20050;-92
2024/03/20 08:48:40;;;;;;;4.85;3.47;;;;;;;13.95;66.28;99123.19;4940932;29;20051;-94
2024/03/20 08:51:07;;;;;;;5.85;3.40;;;;;;;14.25;67.85;99173.88;4940062;29;20046;-95
2024/03/20 08:53:33;;;;;;;6.50;3.78;;;;;;;14.83;65.52;99253.00;4939950;29;20036;-94
2024/03/20 08:56:00;;;;;;;6.13;3.55;;;;;;;14.46;66.32;99174.88;4938113;29;20054;-93
2024/03/20 08:58:27;;;;;;;5.22;3.92;;;;;;;14.98;66.34;99209.56;4939325;29;20046;-94
2024/03/20 09:00:53;;;;;;;8.70;3.60;;;;;;;14.98;64.52;99164.06;4944981;29;20286;-94
2024/03/20 09:03:19;;;;;;;7.53;3.92;;;;;;;15.57;64.47;99237.66;4940822;29;20043;-93
2024/03/20 09:05:56;;;;;;;7.28;2.38;;;;;;;15.73;63.80;99243.31;4958940;28;20391;-93
2024/03/20 09:08:22;;;;;;;5.30;3.70;;;;;;;15.38;62.50;99168.72;4963559;28;20023;-91
2024/03/20 09:10:48;;;;;;;7.95;3.33;;;;;;;15.77;63.01;99237.75;4963024;28;20029;-92
2024/03/20 09:13:15;;;;;;;6.25;3.45;;;;;;;15.90;62.75;99238.13;4958567;28;20070;-91
2024/03/20 09:15:41;;;;;;;3.67;3.00;;;;;;;15.69;62.90;99167.44;4957623;29;20070;-91
2024/03/20 09:18:07;;;;;;;4.70;3.20;;;;;;;16.06;62.12;99245.53;4955961;29;20043;-92
2024/03/20 09:20:33;;;;;;;3.28;2.05;;;;;;;16.27;61.80;99244.63;4951778;29;20411;-93
2024/03/20 09:23:01;;;;;;;4.47;3.60;;;;;;;16.02;61.37;99170.53;4957577;28;20050;-94
2024/03/20 09:25:27;;;;;;;4.72;3.05;;;;;;;16.59;59.87;99240.56;4944307;29;20051;-94
2024/03/20 09:27:53;;;;;;;4.18;3.50;;;;;;;16.47;59.75;99202.63;4942795;29;20055;-93
2024/03/20 09:30:20;;;;;;;4.70;3.60;;;;;;;16.62;59.66;99208.19;4954684;29;20046;-92
2024/03/20 09:32:46;;;;;;;5.43;3.88;;;;;;;16.50;60.02;99189.06;4940861;29;20134;-93
2024/03/20 09:35:13;;;;;;;4.57;3.15;;;;;;;16.28;58.88;99120.25;4939227;29;20055;-94
2024/03/20 09:37:40;;;;;;;6.30;3.88;;;;;;;17.15;58.04;99241.63;4940948;29;20047;-93
2024/03/20 09:40:10;;;;;;;4.75;3.35;;;;;;;16.71;57.46;99141.59;4940564;29;20058;-95
2024/03/20 09:42:37;;;;;;;5.25;3.88;;;;;;;17.15;56.98;99192.38;4955119;29;20075;-93
2024/03/20 09:45:04;;;;;;;6.15;2.40;;;;;;;17.20;56.58;99171.56;4932528;29;20138;-93
2024/03/20 09:47:32;;;;;;;3.90;2.83;;;;;;;17.19;54.87;99202.06;4939967;29;20046;-92
2024/03/20 09:49:59;;;;;;;3.28;2.47;;;;;;;17.36;54.99;99198.56;4939325;29;20052;-94
2024/03/20 09:52:25;;;;;;;4.07;3.05;;;;;;;16.92;54.97;99155.88;4940246;29;20039;-93
2024/03/20 09:54:52;;;;;;;5.03;3.08;;;;;;;17.13;56.23;99213.09;4939828;29;20047;-94
2024/03/20 09:57:19;;;;;;;4.22;2.95;;;;;;;17.17;55.76;99193.19;4940258;29;20046;-93
2024/03/20 09:59:47;;;;;;;4.22;2.35;;;;;;;17.49;51.49;99212.28;4949165;29;20039;-94
2024/03/20 10:02:13;;;;;;;4.38;2.85;;;;;;;17.62;51.94;99200.00;4938901;29;20060;-93
2024/03/20 10:04:41;;;;;;;2.55;2.35;;;;;;;17.13;51.43;99170.09;4956883;28;20039;-94
2024/03/20 10:07:12;;;;;;;6.63;2.80;;;;;;;17.88;50.07;99232.84;4941398;29;20065;-93
2024/03/20 10:09:38;;;;;;;3.05;1.75;;;;;;;17.95;48.22;99208.22;4938174;29;20043;-92
2024/03/20 10:12:05;;;;;;;4.85;3.97;;;;;;;18.22;50.37;99227.50;4941259;29;20070;-92
2024/03/20 10:14:34;;;;;;;3.63;3.05;;;;;;;18.26;50.41;99206.69;4939841;29;20051;-92
2024/03/20 10:17:10;;;;;;;4.97;3.08;;;;;;;18.49;49.98;99218.94;4936749;29;20067;-92
2024/03/20 10:19:36;;;;;;;3.35;2.30;;;;;;;18.56;48.56;99216.78;4937635;29;20122;-93
2024/03/20 10:22:04;;;;;;;3.20;2.95;;;;;;;18.61;47.11;99217.44;4940536;29;20035;-93
2024/03/20 10:24:31;;;;;;;2.63;2.42;;;;;;;18.04;43.58;99121.69;4939858;29;20054;-93
2024/03/20 10:26:57;;;;;;;2.97;2.10;;;;;;;18.53;41.79;99223.22;4956481;28;20040;-94
2024/03/20 10:29:25;;;;;;;2.10;1.60;;;;;;;18.63;41.95;99219.09;4940900;29;20051;-93
2024/03/20 10:31:53;;;;;;;2.33;1.33;;;;;;;18.67;41.75;99212.59;4943195;28;20055;-91
2024/03/20 10:34:22;;;;;;;1.60;1.50;;;;;;;18.68;42.45;99198.16;4957022;28;20040;-91
2024/03/20 10:36:49;;;;;;;2.63;1.95;;;;;;;18.83;42.87;99214.50;4953243;28;20031;-93
2024/03/20 10:39:17;;;;;;;3.25;2.25;;;;;;;18.85;40.47;99212.59;4959487;28;20024;-94
2024/03/20 10:41:46;;;;;;;2.25;1.80;;;;;;;18.64;39.59;99158.00;4960259;28;20028;-95
2024/03/20 10:44:16;;;;;;;2.03;1.80;;;;;;;18.64;39.61;99168.78;4953354;28;20052;-95
2024/03/20 10:46:45;;;;;;;2.30;1.95;;;;;;;18.92;39.61;99208.59;4958359;28;20095;-91
2024/03/20 10:49:14;;;;;;;;;;;;;;;18.95;40.40;99207.56;4960430;28;20039;-92
2024/03/20 10:51:40;;;;;;;2.50;2.15;;;;;;;18.70;39.99;99178.38;4961073;28;19945;-95
2024/03/20 10:54:07;;;;;;;2.17;1.98;;;;;;;18.91;39.81;99220.34;4957502;28;20028;-92
2024/03/20 10:56:42;;;;;;;3.28;2.28;;;;;;;18.91;41.94;99214.97;4954296;28;20024;-94
2024/03/20 10:59:14;;;;;;;2.58;1.73;;;;;;;18.07;40.50;99088.34;4943388;28;20103;-94
2024/03/20 11:01:59;;;;;;;2.13;1.92;;;;;;;18.87;39.94;99210.69;4938834;29;20056;-93
2024/03/20 11:04:36;;;;;;;1.85;1.70;;;;;;;18.76;39.24;99197.75;4931989;29;20080;-94
2024/03/20 11:07:35;;;;;;;2.13;1.95;;;;;;;17.71;39.47;99093.78;4936762;29;20046;-95
2024/03/20 11:10:19;;;;;;;2.10;1.90;;;;;;;17.83;40.34;99107.50;4936341;29;20040;-95
2024/03/20 11:12:47;;;;;;;2.67;2.22;;;;;;;18.25;43.56;99157.34;4938533;29;20058;-93
2024/03/20 11:15:16;;;;;;;2.38;2.17;;;;;;;18.65;41.80;99190.25;4934378;29;20126;-96
2024/03/20 11:17:48;;;;;;;4.22;2.17;;;;;;;18.38;41.02;99117.19;4935613;29;20154;-93
2024/03/20 11:20:46;;;;;;;2.22;2.00;;;;;;;18.68;38.78;99179.31;4937503;29;20052;-95
2024/03/20 11:23:25;;;;;;;2.67;1.95;;;;;;;18.90;41.60;99191.66;4938555;29;20055;-96
2024/03/20 11:25:51;;;;;;;2.90;2.60;;;;;;;18.85;39.00;99182.97;4941435;29;20044;-96
2024/03/20 11:28:22;;;;;;;2.30;2.03;;;;;;;18.09;39.90;99072.97;4950030;29;20099;-96
2024/03/20 11:30:51;;;;;;;2.28;1.88;;;;;;;18.68;39.77;99176.63;4941028;29;20098;-96
2024/03/20 11:33:18;;;;;;;2.50;2.20;;;;;;;18.31;41.58;99091.56;4937445;29;20131;-95
2024/03/20 11:35:47;;;;;;;3.85;2.40;;;;;;;18.77;41.13;99167.16;4940913;29;20056;-96
2024/03/20 11:38:18;;;;;;;2.28;1.67;;;;;;;18.79;40.95;99161.72;4936082;29;20143;-96